Time;durP1;ratioP1;P1;durP2;ratioP2;P2;SDS_P1;SDS_P2;PMS_P1;PMS_P2;Temp;Humidity;BMP_temperature;BMP_pressure;BME280_temperature;BME280_humidity;BME280_pressure;Samples;Min_cycle;Max_cycle;Signal;HPM_P1;HPM_P2
2023/07/01 00:00:46;;;;;;;;;;;;;;;22.25;66.82;96615.97;626753;226;63194;-62
2023/07/01 00:03:14;;;;;;;;;;;;;;;22.24;66.86;96612.50;627011;226;65270;-62
2023/07/01 00:05:42;;;;;;;;;;;;;;;22.24;66.76;96604.47;626991;226;65423;-62
2023/07/01 00:08:09;;;;;;;;;;;;;;;22.25;66.75;96605.26;627017;226;65175;-62
2023/07/01 00:10:36;;;;;;;;;;;;;;;22.25;66.79;96606.05;627103;226;65006;-62
2023/07/01 00:13:04;;;;;;;;;;;;;;;22.24;66.80;96606.35;627007;226;65070;-63
2023/07/01 00:15:31;;;;;;;;;;;;;;;22.24;66.85;96607.14;627050;226;64994;-62
2023/07/01 00:17:59;;;;;;;;;;;;;;;22.24;66.83;96607.14;627055;226;65124;-63
2023/07/01 00:20:26;;;;;;;;;;;;;;;22.23;66.80;96602.86;626998;226;63003;-62
2023/07/01 00:22:54;;;;;;;;;;;;;;;22.25;66.78;96599.91;627095;226;65063;-62
2023/07/01 00:25:23;;;;;;;;;;;;;;;22.25;66.75;96594.55;627033;226;65004;-62
2023/07/01 00:27:50;;;;;;;;;;;;;;;22.24;66.76;96599.11;627032;226;63006;-63
2023/07/01 00:30:18;;;;;;;;;;;;;;;22.25;66.74;96594.55;627059;226;62760;-62
2023/07/01 00:32:45;;;;;;;;;;;;;;;22.24;66.80;96592.97;627031;226;65175;-63
2023/07/01 00:35:13;;;;;;;;;;;;;;;22.24;66.72;96590.30;627034;226;65688;-62
2023/07/01 00:37:41;;;;;;;;;;;;;;;22.22;66.82;96587.89;627072;226;64897;-62
2023/07/01 00:40:09;;;;;;;;;;;;;;;22.23;66.80;96584.12;627029;226;64918;-63
2023/07/01 00:42:36;;;;;;;;;;;;;;;22.23;66.78;96589.47;627002;226;65548;-62
2023/07/01 00:45:04;;;;;;;;;;;;;;;22.23;66.83;96586.80;627000;226;63404;-62
2023/07/01 00:47:32;;;;;;;;;;;;;;;22.23;66.76;96586.80;626992;226;64961;-62
2023/07/01 00:50:00;;;;;;;;;;;;;;;22.23;66.80;96586.80;627097;226;65654;-63
2023/07/01 00:52:28;;;;;;;;;;;;;;;22.23;66.76;96592.15;627056;226;65185;-62
2023/07/01 00:54:56;;;;;;;;;;;;;;;22.25;66.75;96589.20;627044;226;65182;-62
2023/07/01 00:57:24;;;;;;;;;;;;;;;22.23;66.74;96580.66;627059;226;65487;-63
2023/07/01 00:59:51;;;;;;;;;;;;;;;22.24;66.74;96583.05;627029;226;65006;-63
2023/07/01 01:02:23;;;;;;;;;;;;;;;22.23;66.77;96578.77;627124;226;64918;-62
2023/07/01 01:05:01;;;;;;;;;;;;;;;22.22;66.74;96579.86;626761;225;65905;-61
2023/07/01 01:07:23;;;;;;;;;;;;;;;22.23;66.78;96575.30;626668;225;65112;-61
2023/07/01 01:09:55;;;;;;;;;;;;;;;22.23;66.77;96569.95;626691;225;63027;-61
2023/07/01 01:12:23;;;;;;;;;;;;;;;22.23;66.81;96569.95;626629;225;63159;-62
2023/07/01 01:14:52;;;;;;;;;;;;;;;22.22;66.72;96574.52;627112;226;66196;-62
2023/07/01 01:17:20;;;;;;;;;;;;;;;22.23;66.74;96569.95;627033;226;65034;-61
2023/07/01 01:19:52;;;;;;;;;;;;;;;22.23;66.77;96572.63;627043;226;65546;-61
2023/07/01 01:22:28;;;;;;;;;;;;;;;22.22;66.70;96569.16;627031;226;65721;-62
2023/07/01 01:24:57;;;;;;;;;;;;;;;22.22;66.74;96566.48;626801;225;62680;-60
2023/07/01 01:27:29;;;;;;;;;;;;;;;22.21;66.72;96559.55;626915;226;64853;-61
2023/07/01 01:29:56;;;;;;;;;;;;;;;22.22;66.71;96558.45;626971;226;67045;-60
2023/07/01 01:32:24;;;;;;;;;;;;;;;22.21;66.73;96564.90;626893;226;65719;-60
2023/07/01 01:34:51;;;;;;;;;;;;;;;22.22;66.69;96557.66;626882;226;67144;-61
2023/07/01 01:37:20;;;;;;;;;;;;;;;22.21;66.74;96556.87;626877;226;66881;-61
2023/07/01 01:39:49;;;;;;;;;;;;;;;22.22;66.67;96549.63;626873;225;65004;-62
2023/07/01 01:42:24;;;;;;;;;;;;;;;22.21;66.73;96543.48;626925;226;67986;-61
2023/07/01 01:44:53;;;;;;;;;;;;;;;22.21;66.69;96550.70;626887;225;66672;-61
2023/07/01 01:47:22;;;;;;;;;;;;;;;22.22;66.63;96558.45;626921;226;64879;-61
2023/07/01 01:49:52;;;;;;;;;;;;;;;22.20;66.71;96549.91;626548;225;64741;-61
2023/07/01 01:52:20;;;;;;;;;;;;;;;22.22;66.67;96554.98;626636;225;66832;-61
2023/07/01 01:54:50;;;;;;;;;;;;;;;22.21;66.61;96561.41;626923;226;62796;-62
2023/07/01 01:57:18;;;;;;;;;;;;;;;22.21;66.63;96556.05;626910;226;67133;-62
2023/07/01 01:59:45;;;;;;;;;;;;;;;22.21;66.66;96554.20;626875;226;65252;-62
2023/07/01 02:02:13;;;;;;;;;;;;;;;22.20;66.69;96555.27;626904;226;65173;-62
2023/07/01 02:04:41;;;;;;;;;;;;;;;22.20;66.65;96555.27;626854;226;67860;-62
2023/07/01 02:07:08;;;;;;;;;;;;;;;22.20;66.59;96555.27;626918;226;64718;-62
2023/07/01 02:09:36;;;;;;;;;;;;;;;22.21;66.59;96556.05;626957;226;62384;-62
2023/07/01 02:12:04;;;;;;;;;;;;;;;22.21;66.62;96550.70;626844;226;67026;-62
2023/07/01 02:14:32;;;;;;;;;;;;;;;22.20;66.56;96544.55;626905;226;67045;-62
2023/07/01 02:17:00;;;;;;;;;;;;;;;22.20;66.64;96541.88;626896;226;62642;-62
2023/07/01 02:19:28;;;;;;;;;;;;;;;22.20;66.58;96552.58;626901;226;66819;-62
2023/07/01 02:21:56;;;;;;;;;;;;;;;22.21;66.62;96543.48;626954;226;64741;-62
2023/07/01 02:24:23;;;;;;;;;;;;;;;22.20;66.64;96549.91;626881;226;62839;-62
2023/07/01 02:26:51;;;;;;;;;;;;;;;22.20;66.62;96544.55;626887;226;68266;-62
2023/07/01 02:29:18;;;;;;;;;;;;;;;22.20;66.58;96544.55;626925;226;67173;-62
2023/07/01 02:31:46;;;;;;;;;;;;;;;22.20;66.58;96541.88;626878;226;65020;-62
2023/07/01 02:34:14;;;;;;;;;;;;;;;22.20;66.65;96541.88;626883;226;67220;-62
2023/07/01 02:36:43;;;;;;;;;;;;;;;22.20;66.55;96543.77;626933;226;67676;-61
2023/07/01 02:39:10;;;;;;;;;;;;;;;22.20;66.58;96549.91;626880;226;63811;-60
2023/07/01 02:41:38;;;;;;;;;;;;;;;22.19;66.57;96540.30;626941;226;64653;-60
2023/07/01 02:44:05;;;;;;;;;;;;;;;22.20;66.56;96533.06;626879;226;65437;-60
2023/07/01 02:46:33;;;;;;;;;;;;;;;22.20;66.54;96533.84;626878;226;65793;-60
2023/07/01 02:49:00;;;;;;;;;;;;;;;22.20;66.57;96535.73;626930;226;67122;-60
2023/07/01 02:51:29;;;;;;;;;;;;;;;22.20;66.57;96549.12;626883;226;66896;-60
2023/07/01 02:53:56;;;;;;;;;;;;;;;22.19;66.58;96542.98;626892;226;62728;-60
2023/07/01 02:56:24;;;;;;;;;;;;;;;22.19;66.58;96537.62;626903;226;65782;-60
2023/07/01 02:58:52;;;;;;;;;;;;;;;22.20;66.60;96538.41;626850;226;64794;-60
2023/07/01 03:01:19;;;;;;;;;;;;;;;22.19;66.64;96537.62;626947;226;64898;-60
2023/07/01 03:03:49;;;;;;;;;;;;;;;22.19;66.58;96540.30;626887;226;67241;-60
2023/07/01 03:06:16;;;;;;;;;;;;;;;22.19;66.55;96547.54;626870;225;64392;-60
2023/07/01 03:08:44;;;;;;;;;;;;;;;22.20;66.54;96549.12;626902;226;64945;-60
2023/07/01 03:11:11;;;;;;;;;;;;;;;22.20;66.54;96546.44;626821;226;64958;-60
2023/07/01 03:13:39;;;;;;;;;;;;;;;22.18;66.56;96549.42;626867;226;65888;-60
2023/07/01 03:16:07;;;;;;;;;;;;;;;22.19;66.54;96545.66;626895;226;65044;-60
2023/07/01 03:18:35;;;;;;;;;;;;;;;22.19;66.56;96544.86;626868;226;64838;-60
2023/07/01 03:21:02;;;;;;;;;;;;;;;22.19;66.49;96548.33;626891;226;64776;-60
2023/07/01 03:23:32;;;;;;;;;;;;;;;22.19;66.49;96542.19;626723;225;63025;-60
2023/07/01 03:26:00;;;;;;;;;;;;;;;22.17;66.57;96540.55;626913;226;67266;-60
2023/07/01 03:28:27;;;;;;;;;;;;;;;22.18;66.57;96544.08;626899;226;66944;-60
2023/07/01 03:30:55;;;;;;;;;;;;;;;22.19;66.59;96540.30;626916;226;62453;-60
2023/07/01 03:33:24;;;;;;;;;;;;;;;22.19;66.61;96544.86;626861;226;64243;-60
2023/07/01 03:35:51;;;;;;;;;;;;;;;22.18;66.56;96541.39;626888;226;64825;-60
2023/07/01 03:38:19;;;;;;;;;;;;;;;22.18;66.49;96541.39;626832;226;62901;-60
2023/07/01 03:40:47;;;;;;;;;;;;;;;22.18;66.54;96546.75;626938;226;65119;-60
2023/07/01 03:43:15;;;;;;;;;;;;;;;22.17;66.50;96545.11;626884;226;67109;-60
2023/07/01 03:45:42;;;;;;;;;;;;;;;22.17;66.56;96545.90;626881;226;65225;-60
2023/07/01 03:48:10;;;;;;;;;;;;;;;22.17;66.54;96545.11;626869;226;67278;-60
2023/07/01 03:50:37;;;;;;;;;;;;;;;22.17;66.54;96550.45;626625;226;67061;-60
2023/07/01 03:53:05;;;;;;;;;;;;;;;22.17;66.56;96551.25;626945;226;64873;-62
2023/07/01 03:55:32;;;;;;;;;;;;;;;22.17;66.58;96556.60;626885;226;64826;-62
2023/07/01 03:58:00;;;;;;;;;;;;;;;22.17;66.57;96561.17;626910;226;64789;-62
2023/07/01 04:00:28;;;;;;;;;;;;;;;22.17;66.61;96566.52;626896;226;65047;-61
2023/07/01 04:03:02;;;;;;;;;;;;;;;22.16;66.54;96552.34;626851;226;67208;-61
2023/07/01 04:05:25;;;;;;;;;;;;;;;22.17;66.59;96553.14;626775;225;65158;-61
2023/07/01 04:07:52;;;;;;;;;;;;;;;22.16;66.60;96548.87;626892;226;62978;-60
2023/07/01 04:10:20;;;;;;;;;;;;;;;22.16;66.57;96551.55;626878;226;64971;-60
2023/07/01 04:12:47;;;;;;;;;;;;;;;22.17;66.54;96558.48;626763;226;64865;-60
2023/07/01 04:15:15;;;;;;;;;;;;;;;22.16;66.60;96551.55;626897;226;63773;-60
2023/07/01 04:17:43;;;;;;;;;;;;;;;22.17;66.59;96556.60;624779;226;67049;-60
2023/07/01 04:20:11;;;;;;;;;;;;;;;22.17;66.58;96555.81;619059;226;64333;-61
2023/07/01 04:22:38;;;;;;;;;;;;;;;22.15;66.61;96564.14;619016;229;65084;-60
2023/07/01 04:25:07;;;;;;;;;;;;;;;22.16;66.58;96560.38;619218;229;66935;-60
2023/07/01 04:27:35;;;;;;;;;;;;;;;22.15;66.61;96550.77;619569;229;67113;-60
2023/07/01 04:30:03;;;;;;;;;;;;;;;22.15;66.60;96553.44;619326;229;65090;-61
2023/07/01 04:32:31;;;;;;;;;;;;;;;22.15;66.63;96548.09;619288;229;65393;-60
2023/07/01 04:34:58;;;;;;;;;;;;;;;22.16;66.64;96551.55;619321;229;66697;-61
2023/07/01 04:37:25;;;;;;;;;;;;;;;22.15;66.71;96553.44;619115;229;65019;-60
2023/07/01 04:39:53;;;;;;;;;;;;;;;22.15;66.67;96558.80;618634;229;66863;-60
2023/07/01 04:42:20;;;;;;;;;;;;;;;22.16;66.60;96559.59;619411;229;67759;-60
2023/07/01 04:44:53;;;;;;;;;;;;;;;22.15;66.68;96555.30;619750;229;64868;-60
2023/07/01 04:47:17;;;;;;;;;;;;;;;22.14;66.76;96548.37;619510;228;66974;-60
2023/07/01 04:49:45;;;;;;;;;;;;;;;22.15;66.79;96549.95;619711;229;67057;-60
2023/07/01 04:52:15;;;;;;;;;;;;;;;22.15;66.79;96547.27;619716;229;62925;-60
2023/07/01 04:54:42;;;;;;;;;;;;;;;22.15;66.78;96541.92;619684;229;67449;-60
2023/07/01 04:57:09;;;;;;;;;;;;;;;22.15;66.81;96541.92;619753;229;66962;-62
2023/07/01 04:59:37;;;;;;;;;;;;;;;22.16;66.76;96540.85;619449;229;64832;-60
2023/07/01 05:02:04;;;;;;;;;;;;;;;22.15;66.82;96544.59;619684;229;67248;-60
2023/07/01 05:04:32;;;;;;;;;;;;;;;22.15;66.80;96541.92;619629;229;67005;-60
2023/07/01 05:06:59;;;;;;;;;;;;;;;22.16;66.77;96546.20;618653;229;64970;-60
2023/07/01 05:09:27;;;;;;;;;;;;;;;22.16;66.85;96548.87;619815;229;67191;-60
2023/07/01 05:11:54;;;;;;;;;;;;;;;22.15;66.86;96552.62;619683;229;67045;-60
2023/07/01 05:14:22;;;;;;;;;;;;;;;22.14;66.87;96541.13;617510;229;65046;-63
2023/07/01 05:16:49;;;;;;;;;;;;;;;22.13;67.00;96528.84;617488;230;67093;-61
2023/07/01 05:19:17;;;;;;;;;;;;;;;22.14;66.93;96537.66;617503;230;64866;-61
2023/07/01 05:21:51;;;;;;;;;;;;;;;22.14;66.86;96540.34;617558;230;62833;-61
2023/07/01 05:24:18;;;;;;;;;;;;;;;22.14;67.00;96540.34;617480;230;67409;-61
2023/07/01 05:26:47;;;;;;;;;;;;;;;22.14;66.98;96545.69;617469;230;66863;-61
2023/07/01 05:29:15;;;;;;;;;;;;;;;22.14;66.90;96545.69;617490;230;64900;-61
2023/07/01 05:31:42;;;;;;;;;;;;;;;22.14;66.94;96541.13;617510;230;67148;-61
2023/07/01 05:34:10;;;;;;;;;;;;;;;22.14;67.01;96543.80;617590;229;64521;-61
2023/07/01 05:36:37;;;;;;;;;;;;;;;22.13;67.04;96536.88;617572;227;65286;-61
2023/07/01 05:39:05;;;;;;;;;;;;;;;22.14;67.01;96537.66;617490;230;67203;-61
2023/07/01 05:41:33;;;;;;;;;;;;;;;22.13;67.16;96531.52;617511;230;67322;-62
2023/07/01 05:44:01;;;;;;;;;;;;;;;22.13;67.00;96542.22;617545;230;63632;-61
2023/07/01 05:46:28;;;;;;;;;;;;;;;22.13;67.07;96536.08;617542;230;67259;-63
2023/07/01 05:48:55;;;;;;;;;;;;;;;22.13;67.07;96536.88;617568;230;66907;-63
2023/07/01 05:51:23;;;;;;;;;;;;;;;22.13;67.17;96528.05;617535;230;65076;-63
2023/07/01 05:53:51;;;;;;;;;;;;;;;22.13;67.09;96528.05;617524;230;67188;-63
2023/07/01 05:56:18;;;;;;;;;;;;;;;22.12;67.07;96527.23;617531;230;64918;-63
2023/07/01 05:58:45;;;;;;;;;;;;;;;22.13;67.25;96533.41;617549;230;62826;-63
2023/07/01 06:01:13;;;;;;;;;;;;;;;22.13;67.16;96530.73;617593;230;64187;-63
2023/07/01 06:03:40;;;;;;;;;;;;;;;22.12;67.22;96521.88;617536;230;64811;-63
2023/07/01 06:06:08;;;;;;;;;;;;;;;22.13;67.19;96520.02;617441;230;64997;-63
2023/07/01 06:08:36;;;;;;;;;;;;;;;22.12;67.16;96521.88;617505;230;65246;-63
2023/07/01 06:11:03;;;;;;;;;;;;;;;22.10;66.69;96524.08;617522;227;67081;-63
2023/07/01 06:13:31;;;;;;;;;;;;;;;22.10;67.21;96513.38;615808;229;65010;-63
2023/07/01 06:15:58;;;;;;;;;;;;;;;22.11;67.35;96514.16;614777;231;67197;-63
2023/07/01 06:18:26;;;;;;;;;;;;;;;22.12;67.47;96521.09;614775;231;66985;-63
2023/07/01 06:20:53;;;;;;;;;;;;;;;22.12;67.57;96515.73;614735;231;65018;-61
2023/07/01 06:23:20;;;;;;;;;;;;;;;22.13;67.62;96517.34;614802;228;64955;-61
2023/07/01 06:25:48;;;;;;;;;;;;;;;22.13;67.77;96512.78;614790;231;65832;-61
2023/07/01 06:28:15;;;;;;;;;;;;;;;22.14;67.53;96513.58;614793;231;65042;-61
2023/07/01 06:30:43;;;;;;;;;;;;;;;22.14;67.92;96518.92;614739;231;67142;-61
2023/07/01 06:33:10;;;;;;;;;;;;;;;22.15;67.99;96523.19;614740;231;67017;-61
2023/07/01 06:35:41;;;;;;;;;;;;;;;22.14;67.95;96519.72;614784;231;64996;-61
2023/07/01 06:38:07;;;;;;;;;;;;;;;22.15;68.04;96523.19;614440;231;64909;-62
2023/07/01 06:40:34;;;;;;;;;;;;;;;22.15;68.14;96526.68;614775;231;67158;-62
2023/07/01 06:43:07;;;;;;;;;;;;;;;22.16;68.00;96522.12;614748;231;65029;-62
2023/07/01 06:45:32;;;;;;;;;;;;;;;22.15;68.06;96524.00;614479;231;67247;-62
2023/07/01 06:48:00;;;;;;;;;;;;;;;22.16;67.92;96524.80;614643;228;66890;-62
2023/07/01 06:50:27;;;;;;;;;;;;;;;22.16;68.07;96522.91;614728;231;65029;-62
2023/07/01 06:52:55;;;;;;;;;;;;;;;22.16;68.00;96524.80;614821;231;67207;-62
2023/07/01 06:55:26;;;;;;;;;;;;;;;22.17;67.92;96529.05;614755;231;65139;-62
2023/07/01 06:57:53;;;;;;;;;;;;;;;22.17;68.01;96521.02;614757;231;63002;-61
2023/07/01 07:00:20;;;;;;;;;;;;;;;22.16;67.89;96514.09;614718;231;65854;-61
2023/07/01 07:02:48;;;;;;;;;;;;;;;22.16;67.80;96508.73;614780;231;67006;-61
2023/07/01 07:05:15;;;;;;;;;;;;;;;22.17;67.99;96507.64;614807;231;62882;-61
2023/07/01 07:07:43;;;;;;;;;;;;;;;22.17;67.98;96510.31;614747;231;64966;-61
2023/07/01 07:10:10;;;;;;;;;;;;;;;22.17;67.84;96507.64;614777;231;64731;-61
2023/07/01 07:12:38;;;;;;;;;;;;;;;22.17;67.84;96502.29;614716;229;65116;-61
2023/07/01 07:15:06;;;;;;;;;;;;;;;22.17;67.72;96500.41;614735;231;66984;-61
2023/07/01 07:17:34;;;;;;;;;;;;;;;22.17;67.81;96496.94;614807;231;66909;-61
2023/07/01 07:20:02;;;;;;;;;;;;;;;22.18;67.79;96503.92;614718;231;65317;-61
2023/07/01 07:22:30;;;;;;;;;;;;;;;22.18;67.79;96503.92;614762;231;65225;-61
2023/07/01 07:24:57;;;;;;;;;;;;;;;22.19;67.73;96504.72;614758;231;67033;-61
2023/07/01 07:27:25;;;;;;;;;;;;;;;22.17;67.73;96497.72;614709;231;65088;-61
2023/07/01 07:29:52;;;;;;;;;;;;;;;22.18;67.73;96503.92;614785;231;67200;-61
2023/07/01 07:32:20;;;;;;;;;;;;;;;22.18;67.66;96501.25;614745;231;66990;-61
2023/07/01 07:34:48;;;;;;;;;;;;;;;22.19;67.63;96496.69;614761;231;65025;-61
2023/07/01 07:37:15;;;;;;;;;;;;;;;22.19;67.69;96500.16;614785;228;65161;-61
2023/07/01 07:39:43;;;;;;;;;;;;;;;22.20;67.67;96500.94;614745;231;67006;-61
2023/07/01 07:42:10;;;;;;;;;;;;;;;22.20;67.63;96503.62;614759;231;63203;-61
2023/07/01 07:44:38;;;;;;;;;;;;;;;22.19;67.67;96502.83;614724;228;64916;-61
2023/07/01 07:47:05;;;;;;;;;;;;;;;22.20;67.62;96500.94;614767;231;64930;-61
2023/07/01 07:49:33;;;;;;;;;;;;;;;22.19;67.66;96489.45;614755;231;62981;-61
2023/07/01 07:52:01;;;;;;;;;;;;;;;22.18;67.67;96493.22;614761;231;65030;-61
2023/07/01 07:54:28;;;;;;;;;;;;;;;22.20;67.65;96493.70;608105;231;68434;-61
2023/07/01 07:56:59;;;;;;;;;;;;;;;22.19;67.61;96486.77;614601;231;42496;-61
2023/07/01 07:59:30;;;;;;;;;;;;;;;22.20;67.74;96492.91;614714;231;67303;-61
2023/07/01 08:01:58;;;;;;;;;;;;;;;22.20;67.61;96488.35;614762;231;66852;-62
2023/07/01 08:04:25;;;;;;;;;;;;;;;22.20;67.68;96484.88;614745;231;62893;-62
2023/07/01 08:06:53;;;;;;;;;;;;;;;22.20;67.72;96492.91;614741;231;65069;-62
2023/07/01 08:09:20;;;;;;;;;;;;;;;22.20;67.74;96482.20;614779;231;65209;-62
2023/07/01 08:11:48;;;;;;;;;;;;;;;22.20;67.68;96483.00;614736;231;62895;-62
2023/07/01 08:14:15;;;;;;;;;;;;;;;22.21;67.67;96475.75;614655;229;67413;-62
2023/07/01 08:16:43;;;;;;;;;;;;;;;22.20;67.71;96474.18;614758;231;66968;-62
2023/07/01 08:19:10;;;;;;;;;;;;;;;22.20;67.69;96477.64;614743;231;65024;-62
2023/07/01 08:21:38;;;;;;;;;;;;;;;22.20;67.65;96472.30;614703;231;67038;-62
2023/07/01 08:24:09;;;;;;;;;;;;;;;22.20;67.67;96485.67;614755;228;64749;-61
2023/07/01 08:26:36;;;;;;;;;;;;;;;22.20;67.67;96472.30;614776;231;65214;-63
2023/07/01 08:29:05;;;;;;;;;;;;;;;22.21;67.69;96470.41;614759;231;66597;-60
2023/07/01 08:31:33;;;;;;;;;;;;;;;22.21;67.59;96465.05;614768;231;64684;-61
2023/07/01 08:34:01;;;;;;;;;;;;;;;22.21;67.69;96475.75;614701;231;65035;-61
2023/07/01 08:36:29;;;;;;;;;;;;;;;22.21;67.69;96468.55;614788;231;67288;-62
2023/07/01 08:38:57;;;;;;;;;;;;;;;22.20;67.67;96464.27;614724;231;64662;-62
2023/07/01 08:41:25;;;;;;;;;;;;;;;22.21;67.70;96463.19;614763;231;64939;-62
2023/07/01 08:43:53;;;;;;;;;;;;;;;22.22;67.62;96456.74;614745;231;64224;-62
2023/07/01 08:46:22;;;;;;;;;;;;;;;22.21;67.71;96463.19;614758;231;66804;-62
2023/07/01 08:48:51;;;;;;;;;;;;;;;22.21;67.52;96452.48;614733;231;65044;-61
2023/07/01 08:51:23;;;;;;;;;;;;;;;22.22;67.60;96459.42;614750;231;67356;-61
2023/07/01 08:53:52;;;;;;;;;;;;;;;22.22;67.61;96453.28;614684;231;64837;-61
2023/07/01 08:56:20;;;;;;;;;;;;;;;22.21;67.69;96452.48;614726;231;62979;-61
2023/07/01 08:58:48;;;;;;;;;;;;;;;22.21;67.66;96449.81;614706;228;67364;-62
2023/07/01 09:01:16;;;;;;;;;;;;;;;22.22;67.65;96451.39;614754;228;66880;-61
2023/07/01 09:03:46;;;;;;;;;;;;;;;22.22;67.64;96445.25;614751;231;62973;-61
2023/07/01 09:06:14;;;;;;;;;;;;;;;22.22;67.64;96439.89;614748;231;67236;-62
2023/07/01 09:08:42;;;;;;;;;;;;;;;22.22;67.59;96437.22;614778;231;67105;-62
2023/07/01 09:11:19;;;;;;;;;;;;;;;22.22;67.65;96443.36;614747;231;62871;-62
2023/07/01 09:13:43;;;;;;;;;;;;;;;22.22;67.58;96440.69;614348;229;65045;-62
2023/07/01 09:16:11;;;;;;;;;;;;;;;22.22;67.56;96434.55;614866;231;64680;-62
2023/07/01 09:18:43;;;;;;;;;;;;;;;22.23;67.54;96446.83;614776;231;62892;-62
2023/07/01 09:21:09;;;;;;;;;;;;;;;22.23;67.55;96439.59;614618;231;65028;-62
2023/07/01 09:23:38;;;;;;;;;;;;;;;22.22;67.51;96434.55;613800;231;65941;-62
2023/07/01 09:26:10;;;;;;;;;;;;;;;22.24;67.56;96438.52;614763;231;65047;-62
2023/07/01 09:28:39;;;;;;;;;;;;;;;22.22;67.55;96435.33;614846;231;67277;-62
2023/07/01 09:31:09;;;;;;;;;;;;;;;22.23;67.49;96430.77;614777;231;66996;-62
2023/07/01 09:33:36;;;;;;;;;;;;;;;22.22;67.47;96435.33;614796;231;63060;-62
2023/07/01 09:36:05;;;;;;;;;;;;;;;22.24;67.48;96435.05;614801;231;64974;-62
2023/07/01 09:38:33;;;;;;;;;;;;;;;22.23;67.39;96436.13;614750;231;67076;-62
2023/07/01 09:41:13;;;;;;;;;;;;;;;22.23;67.42;96431.55;614796;231;65017;-62
2023/07/01 09:43:41;;;;;;;;;;;;;;;22.23;67.38;96434.23;614846;231;66991;-61
2023/07/01 09:46:09;;;;;;;;;;;;;;;22.23;67.46;96431.55;614774;231;66997;-61
2023/07/01 09:48:37;;;;;;;;;;;;;;;22.24;67.48;96427.02;614772;231;65035;-61
2023/07/01 09:51:05;;;;;;;;;;;;;;;22.24;67.38;96432.38;614759;228;65112;-61
2023/07/01 09:53:34;;;;;;;;;;;;;;;22.23;67.35;96428.88;614758;231;66991;-61
2023/07/01 09:56:03;;;;;;;;;;;;;;;22.23;67.35;96426.20;614814;231;62897;-61
2023/07/01 09:58:32;;;;;;;;;;;;;;;22.24;67.33;96427.02;614770;231;67394;-61
2023/07/01 10:01:01;;;;;;;;;;;;;;;22.25;67.35;96428.60;614753;231;66882;-61
2023/07/01 10:03:29;;;;;;;;;;;;;;;22.25;67.29;96425.92;614511;228;65067;-62
2023/07/01 10:05:57;;;;;;;;;;;;;;;22.24;67.38;96417.11;614765;231;67219;-62
2023/07/01 10:08:25;;;;;;;;;;;;;;;22.24;67.32;96421.67;614849;231;64756;-62
2023/07/01 10:11:09;;;;;;;;;;;;;;;22.24;67.20;96419.78;614837;231;63061;-62
2023/07/01 10:13:40;;;;;;;;;;;;;;;22.24;67.39;96422.45;616480;229;67044;-62
2023/07/01 10:16:09;;;;;;;;;;;;;;;22.25;67.34;96416.01;617486;229;67757;-62
2023/07/01 10:18:36;;;;;;;;;;;;;;;22.24;67.28;96411.75;617526;229;64850;-62
2023/07/01 10:21:22;;;;;;;;;;;;;;;22.25;67.28;96407.19;617543;230;67186;-62
2023/07/01 10:23:50;;;;;;;;;;;;;;;22.25;67.24;96409.87;617569;230;67010;-63
2023/07/01 10:26:35;;;;;;;;;;;;;;;22.25;67.16;96401.84;617521;230;62882;-63
2023/07/01 10:29:20;;;;;;;;;;;;;;;22.25;67.19;96407.19;617531;230;67267;-62
2023/07/01 10:32:05;;;;;;;;;;;;;;;22.24;67.18;96384.98;617543;230;66835;-61
2023/07/01 10:34:51;;;;;;;;;;;;;;;22.26;67.15;96388.17;617536;230;65305;-62
2023/07/01 10:37:19;;;;;;;;;;;;;;;22.25;67.16;96386.56;617517;230;65077;-62
2023/07/01 10:39:46;;;;;;;;;;;;;;;22.26;67.03;96385.50;617496;230;65569;-62
2023/07/01 10:42:33;;;;;;;;;;;;;;;22.24;67.05;96384.98;617583;230;65284;-62
2023/07/01 10:44:58;;;;;;;;;;;;;;;22.25;67.03;96380.42;617101;229;67191;-61
2023/07/01 10:47:25;;;;;;;;;;;;;;;22.25;67.09;96365.16;616760;230;66953;-62
2023/07/01 10:50:01;;;;;;;;;;;;;;;22.25;67.07;96365.16;617526;230;65111;-62
2023/07/01 10:52:28;;;;;;;;;;;;;;;22.25;67.02;96365.16;617323;229;67347;-62
2023/07/01 10:54:56;;;;;;;;;;;;;;;22.26;66.96;96369.44;617521;230;66993;-62
2023/07/01 10:57:24;;;;;;;;;;;;;;;22.26;67.00;96358.73;617609;230;65171;-62
2023/07/01 10:59:51;;;;;;;;;;;;;;;22.27;67.00;96346.92;617458;230;64596;-62
2023/07/01 11:02:21;;;;;;;;;;;;;;;22.26;67.01;96342.67;617522;230;64805;-62
2023/07/01 11:04:56;;;;;;;;;;;;;;;22.27;67.02;96341.57;615849;229;62849;-62
2023/07/01 11:07:24;;;;;;;;;;;;;;;22.27;67.02;96343.45;617522;230;67433;-62
2023/07/01 11:09:55;;;;;;;;;;;;;;;22.26;66.94;96342.67;617567;230;46962;-62
2023/07/01 11:12:24;;;;;;;;;;;;;;;22.28;66.87;96343.14;617291;229;63839;-62
2023/07/01 11:14:53;;;;;;;;;;;;;;;22.27;66.88;96341.57;617525;230;67360;-62
2023/07/01 11:17:21;;;;;;;;;;;;;;;22.27;66.88;96333.54;617516;230;66916;-62
2023/07/01 11:19:55;;;;;;;;;;;;;;;22.27;66.84;96328.19;617510;230;62966;-62
2023/07/01 11:22:23;;;;;;;;;;;;;;;22.28;66.83;96331.66;617545;230;65126;-62
2023/07/01 11:24:50;;;;;;;;;;;;;;;22.27;66.81;96325.52;617548;230;64916;-62
2023/07/01 11:27:20;;;;;;;;;;;;;;;22.28;66.75;96332.44;617500;230;63789;-62
2023/07/01 11:29:48;;;;;;;;;;;;;;;22.28;66.68;96329.77;617521;230;67231;-62
2023/07/01 11:32:17;;;;;;;;;;;;;;;22.27;66.71;96330.86;617512;230;66876;-62
2023/07/01 11:34:49;;;;;;;;;;;;;;;22.28;66.66;96335.11;617512;230;65270;-62
2023/07/01 11:37:16;;;;;;;;;;;;;;;22.28;66.67;96332.44;617461;229;67315;-62
2023/07/01 11:39:46;;;;;;;;;;;;;;;22.29;66.70;96334.05;617339;229;65050;-62
2023/07/01 11:42:13;;;;;;;;;;;;;;;22.29;66.66;96335.91;617510;230;63020;-62
2023/07/01 11:44:41;;;;;;;;;;;;;;;22.29;66.58;96338.58;617532;230;64894;-62
2023/07/01 11:47:10;;;;;;;;;;;;;;;22.28;66.63;96327.09;617515;230;64660;-62
2023/07/01 11:49:39;;;;;;;;;;;;;;;22.29;66.61;96328.69;617453;228;62901;-62
2023/07/01 11:52:06;;;;;;;;;;;;;;;22.29;66.55;96336.72;617525;230;67317;-62
2023/07/01 11:54:39;;;;;;;;;;;;;;;22.30;66.56;96324.91;617502;230;67367;-62
2023/07/01 11:57:12;;;;;;;;;;;;;;;22.30;66.51;96329.48;617501;229;63011;-62
2023/07/01 11:59:39;;;;;;;;;;;;;;;22.30;66.56;96329.48;617505;230;67206;-62
2023/07/01 12:02:07;;;;;;;;;;;;;;;22.29;66.52;96328.69;617499;230;67041;-62
2023/07/01 12:04:37;;;;;;;;;;;;;;;22.29;66.50;96334.05;617474;230;65037;-62
2023/07/01 12:07:09;;;;;;;;;;;;;;;22.31;66.44;96331.05;617565;227;65037;-62
2023/07/01 12:09:40;;;;;;;;;;;;;;;22.31;66.45;96331.84;617510;230;64881;-62
2023/07/01 12:12:08;;;;;;;;;;;;;;;22.31;66.51;96334.52;617314;229;62456;-62
2023/07/01 12:14:35;;;;;;;;;;;;;;;22.31;66.44;96329.17;614776;231;66929;-62
2023/07/01 12:17:03;;;;;;;;;;;;;;;22.31;66.46;96331.05;614733;228;67027;-62
2023/07/01 12:19:31;;;;;;;;;;;;;;;22.32;66.43;96335.34;614779;231;64994;-62
2023/07/01 12:22:02;;;;;;;;;;;;;;;22.30;66.43;96335.63;614763;231;67588;-62
2023/07/01 12:24:30;;;;;;;;;;;;;;;22.32;66.41;96335.34;614764;228;66897;-62
2023/07/01 12:26:59;;;;;;;;;;;;;;;22.32;66.41;96333.45;614753;231;65023;-62
2023/07/01 12:29:27;;;;;;;;;;;;;;;22.32;66.41;96336.13;614466;229;67268;-62
2023/07/01 12:31:54;;;;;;;;;;;;;;;22.32;66.36;96344.16;614832;231;67033;-62
2023/07/01 12:34:22;;;;;;;;;;;;;;;22.33;66.43;96336.92;614781;231;65021;-62
2023/07/01 12:36:50;;;;;;;;;;;;;;;22.32;66.39;96330.77;614813;231;66790;-62
2023/07/01 12:39:20;;;;;;;;;;;;;;;22.33;66.39;96327.00;614786;231;66761;-62
2023/07/01 12:41:49;;;;;;;;;;;;;;;22.33;66.35;96332.34;614774;231;65163;-62
2023/07/01 12:44:16;;;;;;;;;;;;;;;22.33;66.41;96329.67;614782;231;66864;-62
2023/07/01 12:46:45;;;;;;;;;;;;;;;22.32;66.37;96328.09;614882;231;66694;-62
2023/07/01 12:49:14;;;;;;;;;;;;;;;22.34;66.47;96325.11;614826;231;65032;-62
2023/07/01 12:51:43;;;;;;;;;;;;;;;22.33;66.42;96318.97;614816;231;66976;-62
2023/07/01 12:54:11;;;;;;;;;;;;;;;22.33;66.40;96318.97;614816;231;66790;-62